Time;durP1;ratioP1;P1;durP2;ratioP2;P2;SDS_P1;SDS_P2;PMS_P1;PMS_P2;Temp;Humidity;BMP_temperature;BMP_pressure;BME280_temperature;BME280_humidity;BME280_pressure;Samples;Min_cycle;Max_cycle;Signal;HPM_P1;HPM_P2
2022/11/17 00:02:23;;;;;;;12.77;7.18;;;8.80;99.90;;;;;;4994982;28;20084;-39
2022/11/17 00:04:49;;;;;;;12.40;6.47;;;8.80;99.90;;;;;;5008945;28;20802;-39
2022/11/17 00:07:14;;;;;;;12.48;5.82;;;8.80;99.90;;;;;;5002502;28;20050;-39
2022/11/17 00:09:40;;;;;;;14.75;8.10;;;8.80;99.90;;;;;;5005576;28;20084;-38
2022/11/17 00:14:50;;;;;;;13.88;7.20;;;8.80;99.90;;;;;;5001296;28;20057;-39
2022/11/17 00:17:16;;;;;;;11.70;7.18;;;8.80;99.90;;;;;;5007880;28;20080;-38
2022/11/17 00:22:29;;;;;;;10.90;6.80;;;8.80;99.90;;;;;;5012619;28;20080;-37
2022/11/17 00:24:55;;;;;;;14.32;7.40;;;8.80;99.90;;;;;;5005378;28;20439;-39
2022/11/17 00:27:21;;;;;;;11.63;6.50;;;8.80;99.90;;;;;;5005576;28;20050;-39
2022/11/17 00:29:46;;;;;;;12.65;7.07;;;8.80;99.90;;;;;;5013970;28;20069;-38
2022/11/17 00:34:58;;;;;;;12.15;7.00;;;8.80;99.90;;;;;;5003195;28;20380;-38
2022/11/17 00:37:25;;;;;;;15.15;7.35;;;8.90;99.90;;;;;;5010191;28;20041;-39
2022/11/17 00:39:50;;;;;;;13.88;7.30;;;8.90;99.90;;;;;;5006637;28;20052;-38
2022/11/17 00:42:16;;;;;;;10.93;6.47;;;8.90;99.90;;;;;;5008855;28;20034;-37
2022/11/17 00:44:42;;;;;;;11.90;6.22;;;8.90;99.90;;;;;;5003562;28;20088;-38
2022/11/17 00:47:07;;;;;;;12.48;6.60;;;8.90;99.90;;;;;;5007742;28;20123;-40
2022/11/17 00:49:33;;;;;;;12.95;7.10;;;8.90;99.90;;;;;;5003866;28;20042;-38
2022/11/17 00:51:59;;;;;;;13.00;6.57;;;8.90;99.90;;;;;;5006086;28;20038;-38
2022/11/17 00:54:24;;;;;;;11.73;6.35;;;9.00;99.90;;;;;;5004102;28;20049;-38
2022/11/17 00:56:50;;;;;;;13.05;5.82;;;9.00;99.90;;;;;;5017606;28;20078;-38
2022/11/17 00:59:16;;;;;;;13.80;6.78;;;9.00;99.90;;;;;;4999975;28;20116;-39
2022/11/17 01:01:42;;;;;;;14.07;6.60;;;9.00;99.90;;;;;;5002261;28;20034;-40
2022/11/17 01:04:08;;;;;;;10.70;6.95;;;9.00;99.90;;;;;;5001529;28;20038;-39
2022/11/17 01:06:46;;;;;;;13.68;6.85;;;9.00;99.90;;;;;;5003410;28;20120;-38
2022/11/17 01:09:20;;;;;;;10.77;6.20;;;9.00;99.90;;;;;;4998243;28;20042;-38
2022/11/17 01:11:48;;;;;;;14.57;6.95;;;9.00;99.90;;;;;;5004944;28;20582;-40
2022/11/17 01:14:25;;;;;;;14.77;6.47;;;9.10;99.90;;;;;;5002106;28;20052;-38
2022/11/17 01:16:52;;;;;;;14.05;6.25;;;9.10;99.90;;;;;;5008953;28;20127;-38
2022/11/17 01:19:18;;;;;;;13.88;6.40;;;9.10;99.90;;;;;;5001147;28;20100;-39
2022/11/17 01:21:45;;;;;;;12.18;6.80;;;9.10;99.90;;;;;;5003243;28;20038;-42
2022/11/17 01:24:12;;;;;;;11.55;6.00;;;9.00;99.90;;;;;;5003926;28;20084;-40
2022/11/17 01:26:38;;;;;;;10.68;5.78;;;9.10;99.90;;;;;;5000729;28;20995;-42
2022/11/17 01:29:05;;;;;;;11.43;5.82;;;9.00;99.90;;;;;;5004393;28;20185;-39
2022/11/17 01:31:35;;;;;;;10.05;6.10;;;9.10;99.90;;;;;;4987706;28;20566;-38
2022/11/17 01:34:01;;;;;;;11.55;6.13;;;9.10;99.90;;;;;;4999370;28;20363;-43
2022/11/17 01:36:28;;;;;;;10.77;5.65;;;9.00;99.90;;;;;;5001280;28;20041;-39
2022/11/17 01:38:54;;;;;;;13.45;5.75;;;9.00;99.90;;;;;;5005614;28;20069;-38
2022/11/17 01:41:26;;;;;;;9.70;5.63;;;9.00;99.90;;;;;;5011600;28;20076;-39
2022/11/17 01:43:55;;;;;;;9.43;4.82;;;9.00;99.90;;;;;;5002568;28;20054;-39
2022/11/17 01:46:40;;;;;;;10.20;5.82;;;9.00;99.90;;;;;;5002981;28;20714;-40
2022/11/17 01:49:21;;;;;;;12.75;6.07;;;9.00;99.90;;;;;;5002284;28;20041;-38
2022/11/17 01:51:54;;;;;;;10.80;6.18;;;9.00;99.90;;;;;;5003818;28;20052;-39
2022/11/17 01:54:24;;;;;;;10.43;5.63;;;9.00;99.90;;;;;;5005922;28;20506;-39
2022/11/17 01:56:55;;;;;;;13.23;6.18;;;9.00;99.90;;;;;;4999300;28;20088;-39
2022/11/17 01:59:33;;;;;;;13.70;5.90;;;9.00;99.90;;;;;;4998996;28;20050;-38
2022/11/17 02:02:00;;;;;;;13.20;6.13;;;9.00;99.90;;;;;;4996034;28;20041;-38
2022/11/17 02:04:35;;;;;;;12.80;5.93;;;9.00;99.90;;;;;;5002208;28;20132;-39
2022/11/17 02:07:08;;;;;;;13.45;6.78;;;9.00;99.90;;;;;;5003544;28;20053;-38
2022/11/17 02:09:37;;;;;;;16.60;6.65;;;9.00;99.90;;;;;;4999785;28;20495;-39
2022/11/17 02:12:07;;;;;;;14.77;6.50;;;9.00;99.90;;;;;;5002209;28;20034;-39
2022/11/17 02:14:33;;;;;;;13.18;6.60;;;8.90;99.90;;;;;;4998956;28;20132;-39
2022/11/17 02:16:59;;;;;;;13.98;6.18;;;8.90;99.90;;;;;;4993996;28;20117;-37
2022/11/17 02:19:27;;;;;;;10.80;5.88;;;8.90;99.90;;;;;;5000082;28;20042;-40
2022/11/17 02:22:31;;;;;;;12.07;5.97;;;8.90;99.90;;;;;;4997649;28;20042;-39
2022/11/17 02:25:20;;;;;;;9.93;5.70;;;8.90;99.90;;;;;;4998353;28;20046;-38
2022/11/17 02:27:58;;;;;;;11.27;6.03;;;8.90;99.90;;;;;;4994959;28;20046;-37
2022/11/17 02:30:36;;;;;;;11.05;5.75;;;8.90;99.90;;;;;;4995008;28;20050;-37
2022/11/17 02:33:28;;;;;;;9.85;6.15;;;8.90;99.90;;;;;;4998184;28;20048;-39
2022/11/17 02:36:18;;;;;;;11.45;6.60;;;8.90;99.90;;;;;;5000630;28;20041;-37
2022/11/17 02:38:55;;;;;;;12.23;6.07;;;8.90;99.90;;;;;;5000483;28;20038;-42
2022/11/17 02:41:29;;;;;;;12.93;6.47;;;8.80;99.90;;;;;;4996826;28;20046;-40
2022/11/17 02:44:05;;;;;;;12.75;5.97;;;8.80;99.90;;;;;;4998682;28;20069;-38
2022/11/17 02:46:44;;;;;;;10.93;6.07;;;8.80;99.90;;;;;;5001930;28;20046;-37
2022/11/17 02:49:24;;;;;;;11.93;5.88;;;8.80;99.90;;;;;;4997374;28;20091;-41
2022/11/17 02:51:53;;;;;;;14.02;6.18;;;8.90;99.90;;;;;;5001191;28;20057;-37
2022/11/17 02:54:21;;;;;;;13.77;6.07;;;8.80;99.90;;;;;;5013718;28;20507;-39
2022/11/17 02:56:47;;;;;;;13.55;5.70;;;8.90;99.90;;;;;;4999464;28;20084;-38
2022/11/17 02:59:16;;;;;;;15.73;6.32;;;8.90;99.90;;;;;;5000238;28;20435;-38
2022/11/17 03:01:42;;;;;;;15.18;6.07;;;8.90;99.90;;;;;;5001594;28;20496;-40
2022/11/17 03:04:25;;;;;;;10.23;4.80;;;8.90;99.90;;;;;;5004346;28;20068;-39
2022/11/17 03:07:33;;;;;;;10.95;5.65;;;8.90;99.90;;;;;;5002147;28;20042;-40
2022/11/17 03:10:16;;;;;;;14.20;5.57;;;8.90;99.90;;;;;;5000860;28;20046;-39
2022/11/17 03:13:00;;;;;;;9.15;5.45;;;8.90;99.90;;;;;;5002399;28;20046;-40
2022/11/17 03:15:41;;;;;;;10.68;4.57;;;8.90;99.90;;;;;;5003382;28;20049;-37
2022/11/17 03:18:19;;;;;;;12.25;5.00;;;8.90;99.90;;;;;;5001448;28;20060;-38
2022/11/17 03:21:04;;;;;;;9.48;5.80;;;8.90;99.90;;;;;;4998281;28;20549;-38
2022/11/17 03:23:41;;;;;;;9.68;4.85;;;8.90;99.90;;;;;;4999885;28;20523;-38
2022/11/17 03:26:10;;;;;;;12.27;5.30;;;8.90;99.90;;;;;;4994379;28;20407;-43
2022/11/17 03:28:37;;;;;;;10.18;5.03;;;9.00;99.90;;;;;;4998851;28;20069;-37
2022/11/17 03:31:05;;;;;;;12.75;6.20;;;8.90;99.90;;;;;;5002335;28;20048;-38
2022/11/17 03:33:33;;;;;;;9.95;5.45;;;8.90;99.90;;;;;;4998300;28;20449;-36
2022/11/17 03:36:22;;;;;;;9.75;5.10;;;8.90;99.90;;;;;;5004140;28;20092;-37
2022/11/17 03:39:15;;;;;;;7.97;4.47;;;9.00;99.90;;;;;;4996780;28;20499;-38
2022/11/17 03:41:44;;;;;;;9.90;4.75;;;9.00;99.90;;;;;;5009070;28;20117;-38
2022/11/17 03:44:13;;;;;;;8.38;4.40;;;9.00;99.90;;;;;;4999035;28;20499;-38
2022/11/17 03:46:41;;;;;;;6.70;3.83;;;9.00;99.90;;;;;;4998815;28;20038;-37
2022/11/17 03:49:32;;;;;;;8.23;4.05;;;9.00;99.90;;;;;;4997519;28;20411;-37
2022/11/17 03:51:58;;;;;;;13.32;5.10;;;9.00;99.90;;;;;;5003203;28;20415;-38
2022/11/17 03:54:24;;;;;;;8.15;4.20;;;9.00;99.90;;;;;;5003318;28;20038;-38
2022/11/17 03:57:00;;;;;;;15.35;5.43;;;9.10;99.90;;;;;;4999241;28;20041;-37
2022/11/17 03:59:52;;;;;;;7.55;4.22;;;9.10;99.90;;;;;;5024077;28;20044;-37
2022/11/17 04:02:23;;;;;;;10.30;4.95;;;9.10;99.90;;;;;;5004119;28;20049;-38
2022/11/17 04:05:06;;;;;;;13.13;4.88;;;9.10;99.90;;;;;;5003419;28;20045;-37
2022/11/17 04:07:41;;;;;;;7.45;4.22;;;9.10;99.90;;;;;;5004400;28;20049;-39
2022/11/17 04:10:10;;;;;;;9.35;4.00;;;9.10;99.90;;;;;;4994245;28;20044;-38
2022/11/17 04:18:04;;;;;;;11.23;3.72;;;9.10;99.90;;;;;;4999442;28;20045;-38
2022/11/17 04:20:34;;;;;;;7.75;4.00;;;9.10;99.90;;;;;;5003017;28;20414;-37
2022/11/17 04:23:10;;;;;;;8.23;3.05;;;9.10;99.90;;;;;;4999116;28;20045;-38
2022/11/17 04:28:36;;;;;;;8.18;3.53;;;9.10;99.90;;;;;;5000654;28;21606;-38
2022/11/17 04:31:04;;;;;;;7.95;2.85;;;9.20;99.90;;;;;;5001427;28;20532;-38
2022/11/17 04:33:30;;;;;;;5.07;2.95;;;9.20;99.90;;;;;;4996384;28;20049;-38
2022/11/17 04:35:56;;;;;;;6.50;3.33;;;9.20;99.90;;;;;;5006619;28;20046;-38
2022/11/17 04:38:22;;;;;;;5.82;3.25;;;9.20;99.90;;;;;;5008368;28;20125;-39
2022/11/17 04:43:31;;;;;;;6.47;3.30;;;9.30;99.90;;;;;;4998347;28;20093;-38
2022/11/17 04:45:59;;;;;;;5.20;3.15;;;9.30;99.90;;;;;;4999948;28;20072;-39
2022/11/17 04:48:25;;;;;;;7.45;3.35;;;9.30;99.90;;;;;;5001377;28;20046;-38
2022/11/17 04:50:55;;;;;;;6.80;3.17;;;9.20;99.90;;;;;;5002611;28;20044;-38
2022/11/17 04:53:21;;;;;;;4.97;3.28;;;9.20;99.90;;;;;;4996488;28;20030;-38
2022/11/17 04:55:47;;;;;;;7.72;3.40;;;9.30;99.90;;;;;;4998636;28;20033;-38
2022/11/17 04:58:12;;;;;;;5.22;2.72;;;9.30;99.90;;;;;;4998609;28;20236;-40
2022/11/17 05:00:38;;;;;;;7.82;3.75;;;9.20;99.90;;;;;;4998793;28;20038;-37
2022/11/17 05:03:03;;;;;;;6.30;3.00;;;9.20;99.90;;;;;;5004457;28;20395;-45
2022/11/17 05:05:29;;;;;;;7.03;3.70;;;9.20;99.90;;;;;;5002005;28;20045;-40
2022/11/17 05:07:55;;;;;;;6.72;3.65;;;9.20;99.90;;;;;;5005789;28;20472;-39
2022/11/17 05:13:20;;;;;;;6.15;3.70;;;9.20;99.90;;;;;;5002602;28;20045;-38
2022/11/17 05:13:24;;;;;;;6.00;3.05;;;9.20;99.90;;;;;;4999902;28;20046;-43
2022/11/17 05:18:41;;;;;;;7.85;4.10;;;9.10;99.90;;;;;;5005861;28;20464;-39
2022/11/17 05:21:08;;;;;;;7.90;4.07;;;9.10;99.90;;;;;;5003689;28;20042;-38
2022/11/17 05:23:52;;;;;;;7.40;3.55;;;9.10;99.90;;;;;;5005320;28;20034;-38
2022/11/17 05:26:23;;;;;;;6.63;3.45;;;9.10;99.90;;;;;;5008444;28;20073;-46
2022/11/17 05:28:49;;;;;;;6.85;3.60;;;9.10;99.90;;;;;;4997877;28;20046;-37
2022/11/17 05:31:15;;;;;;;6.65;3.38;;;9.10;99.90;;;;;;5000895;28;20185;-38
2022/11/17 05:33:41;;;;;;;7.97;3.53;;;9.10;99.90;;;;;;4995781;28;20116;-38
2022/11/17 05:36:08;;;;;;;6.57;3.42;;;9.10;99.90;;;;;;5001278;28;20070;-38
2022/11/17 05:38:33;;;;;;;7.63;3.72;;;9.00;99.90;;;;;;5003542;28;20188;-39
2022/11/17 05:40:59;;;;;;;6.07;3.30;;;9.10;99.90;;;;;;5008706;28;20116;-38
2022/11/17 05:43:25;;;;;;;5.82;3.13;;;9.00;99.90;;;;;;5007944;28;20029;-39
2022/11/17 05:45:50;;;;;;;5.95;3.85;;;9.00;99.90;;;;;;4998477;28;20535;-39
2022/11/17 05:48:16;;;;;;;7.15;3.42;;;9.00;99.90;;;;;;5009402;28;20483;-37
2022/11/17 05:50:42;;;;;;;8.75;4.05;;;9.00;99.90;;;;;;4996735;28;20165;-38
2022/11/17 05:53:07;;;;;;;6.90;3.45;;;9.00;99.90;;;;;;5008421;28;20056;-38
2022/11/17 05:55:33;;;;;;;7.57;3.42;;;9.00;99.90;;;;;;5003579;28;20038;-37
2022/11/17 05:58:05;;;;;;;6.53;3.15;;;9.00;99.90;;;;;;4996770;28;20522;-37
2022/11/17 06:00:32;;;;;;;6.90;3.78;;;8.90;99.90;;;;;;5000923;28;20056;-50
2022/11/17 06:03:02;;;;;;;5.85;3.60;;;8.90;99.90;;;;;;5002545;28;20042;-38
2022/11/17 06:05:28;;;;;;;5.82;3.40;;;8.90;99.90;;;;;;4998404;28;20046;-37
2022/11/17 06:07:56;;;;;;;5.50;3.35;;;8.90;99.90;;;;;;4994621;28;20044;-40
2022/11/17 06:10:22;;;;;;;6.68;3.42;;;8.80;99.90;;;;;;5003228;28;20054;-38
2022/11/17 06:12:48;;;;;;;6.57;3.42;;;8.80;99.90;;;;;;5000755;28;20057;-37
2022/11/17 06:15:13;;;;;;;6.53;3.58;;;8.80;99.90;;;;;;5008223;28;20034;-38
2022/11/17 06:17:49;;;;;;;5.18;2.63;;;8.80;99.90;;;;;;4998795;28;20049;-38
2022/11/17 06:20:30;;;;;;;8.02;4.07;;;8.80;99.90;;;;;;4996726;28;20060;-38
2022/11/17 06:23:00;;;;;;;7.13;4.18;;;8.80;99.90;;;;;;4992052;28;20041;-47
2022/11/17 06:25:27;;;;;;;6.97;3.85;;;8.80;99.90;;;;;;4996524;28;20049;-45
2022/11/17 06:27:53;;;;;;;6.68;3.55;;;8.70;99.90;;;;;;4993264;28;20057;-39
2022/11/17 06:30:19;;;;;;;5.45;3.22;;;8.80;99.90;;;;;;4994612;28;20107;-46
2022/11/17 06:32:46;;;;;;;6.88;3.53;;;8.80;99.90;;;;;;4998531;28;20046;-46
2022/11/17 06:35:13;;;;;;;6.97;3.80;;;8.80;99.90;;;;;;4991236;28;20488;-42
2022/11/17 06:37:38;;;;;;;5.88;3.70;;;8.80;99.90;;;;;;5009279;28;20046;-41
2022/11/17 06:40:05;;;;;;;6.90;4.07;;;8.70;99.90;;;;;;4994205;28;20108;-45
2022/11/17 06:45:14;;;;;;;5.95;3.67;;;8.80;99.90;;;;;;4992648;28;20508;-43
2022/11/17 06:47:40;;;;;;;5.97;3.70;;;8.80;99.90;;;;;;4991671;28;20661;-45
2022/11/17 06:50:06;;;;;;;5.47;3.33;;;8.80;99.90;;;;;;5001703;28;20066;-43
2022/11/17 06:52:32;;;;;;;7.50;4.05;;;8.80;99.90;;;;;;4993560;28;20034;-47
2022/11/17 06:54:57;;;;;;;7.00;3.75;;;8.80;99.90;;;;;;4994608;28;20426;-48
2022/11/17 06:57:23;;;;;;;7.15;3.70;;;8.80;99.90;;;;;;5000835;28;20617;-43
2022/11/17 06:59:51;;;;;;;6.03;3.72;;;8.80;99.90;;;;;;4999929;28;20038;-48
2022/11/17 07:02:17;;;;;;;7.43;4.25;;;8.80;99.90;;;;;;4997856;28;20069;-47
2022/11/17 07:04:42;;;;;;;8.73;3.78;;;8.80;99.90;;;;;;5010377;28;20143;-45
2022/11/17 07:07:08;;;;;;;9.02;4.03;;;8.80;99.90;;;;;;5010351;28;20037;-43
2022/11/17 07:09:34;;;;;;;7.68;4.25;;;8.90;99.90;;;;;;5006573;28;20034;-44
2022/11/17 07:11:59;;;;;;;7.25;4.50;;;8.90;99.90;;;;;;5002933;28;20041;-48
2022/11/17 07:14:25;;;;;;;8.70;4.15;;;8.90;99.90;;;;;;4998200;28;20734;-48
2022/11/17 07:16:51;;;;;;;10.30;5.05;;;8.90;99.90;;;;;;4992453;28;20057;-48
2022/11/17 07:19:16;;;;;;;8.32;4.75;;;8.90;99.90;;;;;;5002748;28;20132;-45
2022/11/17 07:21:42;;;;;;;8.75;4.57;;;8.90;99.90;;;;;;5002555;28;20058;-43
2022/11/17 07:24:08;;;;;;;7.65;4.15;;;8.90;99.90;;;;;;5007789;28;20041;-39
2022/11/17 07:26:33;;;;;;;7.43;4.35;;;8.90;99.90;;;;;;4996465;28;20381;-42
2022/11/17 07:29:00;;;;;;;8.18;4.97;;;8.90;99.90;;;;;;4993489;28;20137;-44
2022/11/17 07:31:25;;;;;;;10.55;4.72;;;8.80;99.90;;;;;;4996002;28;20054;-49
2022/11/17 07:33:53;;;;;;;7.95;4.05;;;8.90;99.90;;;;;;5000309;28;20456;-49
2022/11/17 07:36:18;;;;;;;7.18;4.35;;;8.90;99.90;;;;;;5004971;28;20042;-46
2022/11/17 07:38:44;;;;;;;7.72;4.35;;;8.90;99.90;;;;;;4997449;28;20041;-49
2022/11/17 07:41:12;;;;;;;8.32;4.65;;;8.80;99.90;;;;;;4997218;28;20145;-45
2022/11/17 07:43:39;;;;;;;7.55;4.50;;;8.80;99.90;;;;;;5008631;28;20040;-47
2022/11/17 07:46:10;;;;;;;6.78;3.90;;;8.80;99.90;;;;;;4990857;28;20526;-47
2022/11/17 07:48:36;;;;;;;7.43;4.07;;;8.80;99.90;;;;;;4995048;28;20045;-48
2022/11/17 07:51:03;;;;;;;8.68;4.63;;;8.80;99.90;;;;;;4995505;28;20452;-49
2022/11/17 07:53:30;;;;;;;7.20;4.47;;;8.90;99.90;;;;;;4994407;28;20092;-50
2022/11/17 07:55:56;;;;;;;12.23;4.60;;;8.90;99.90;;;;;;4997715;28;20034;-47
2022/11/17 07:58:24;;;;;;;9.25;4.60;;;8.80;99.90;;;;;;4994756;28;20407;-42
2022/11/17 08:00:50;;;;;;;7.38;4.43;;;8.80;99.90;;;;;;5001194;28;20118;-44
2022/11/17 08:03:15;;;;;;;7.57;3.95;;;8.80;99.90;;;;;;5000065;28;20117;-49
2022/11/17 08:05:41;;;;;;;11.00;4.97;;;8.80;99.90;;;;;;4997830;28;20034;-45
2022/11/17 08:08:07;;;;;;;7.00;4.40;;;8.80;99.90;;;;;;4998454;28;20042;-48
2022/11/17 08:10:33;;;;;;;8.40;4.40;;;8.90;99.90;;;;;;4998800;28;20049;-44
2022/11/17 08:13:02;;;;;;;7.72;3.97;;;8.80;99.90;;;;;;4998484;28;20038;-48
2022/11/17 08:15:28;;;;;;;9.85;4.43;;;8.90;99.90;;;;;;4996206;28;20034;-48
2022/11/17 08:17:56;;;;;;;7.53;4.13;;;8.90;99.90;;;;;;5001081;28;20048;-44
2022/11/17 08:20:22;;;;;;;7.30;3.38;;;8.90;99.90;;;;;;5000082;28;20042;-46
2022/11/17 08:22:49;;;;;;;8.20;3.63;;;8.90;99.90;;;;;;4999561;28;20044;-48
2022/11/17 08:25:15;;;;;;;7.38;3.88;;;9.00;99.90;;;;;;5001924;28;20081;-46
2022/11/17 08:27:41;;;;;;;7.40;3.70;;;9.00;99.90;;;;;;5002049;28;20140;-44
2022/11/17 08:30:08;;;;;;;6.47;4.05;;;9.00;99.90;;;;;;5000364;28;20042;-48
2022/11/17 08:32:34;;;;;;;6.60;3.72;;;9.00;99.90;;;;;;5002762;28;20045;-43
2022/11/17 08:35:02;;;;;;;6.80;3.80;;;9.00;99.90;;;;;;5008999;28;20046;-45
2022/11/17 08:37:29;;;;;;;7.18;3.92;;;9.00;99.90;;;;;;5011095;28;20038;-47
2022/11/17 08:39:55;;;;;;;7.63;4.00;;;9.10;99.90;;;;;;4999236;28;20073;-42
2022/11/17 08:42:20;;;;;;;7.43;3.80;;;9.10;99.90;;;;;;4998726;28;20104;-43
2022/11/17 08:44:46;;;;;;;4.72;2.70;;;9.10;99.90;;;;;;4993470;28;20148;-46
2022/11/17 08:47:12;;;;;;;5.13;2.70;;;9.20;99.90;;;;;;5002602;28;20033;-45
2022/11/17 08:49:37;;;;;;;5.95;3.13;;;9.20;99.90;;;;;;5002294;28;20046;-41
2022/11/17 08:52:03;;;;;;;6.97;3.42;;;9.30;99.90;;;;;;4998466;28;20034;-43
2022/11/17 08:54:29;;;;;;;8.18;3.58;;;9.30;99.90;;;;;;4997817;28;20550;-50
2022/11/17 08:56:58;;;;;;;6.95;3.55;;;9.30;99.90;;;;;;4996105;28;20042;-47
2022/11/17 08:59:25;;;;;;;5.82;3.53;;;9.40;99.90;;;;;;5010450;28;20578;-43
2022/11/17 09:01:51;;;;;;;5.50;2.35;;;9.30;99.90;;;;;;4999272;28;20099;-49
2022/11/17 09:04:17;;;;;;;6.65;3.10;;;9.40;99.90;;;;;;5005466;28;20030;-47
2022/11/17 09:06:42;;;;;;;6.35;2.92;;;9.40;99.90;;;;;;4996775;28;20464;-48
2022/11/17 09:09:08;;;;;;;4.93;2.78;;;9.40;99.90;;;;;;5000135;28;20038;-51
2022/11/17 09:11:34;;;;;;;6.60;2.72;;;9.50;99.90;;;;;;4999459;28;20043;-45
2022/11/17 09:13:59;;;;;;;5.30;3.13;;;9.50;99.90;;;;;;5002834;28;20471;-49
2022/11/17 09:16:25;;;;;;;7.45;3.35;;;9.50;99.90;;;;;;5001989;28;20038;-47
2022/11/17 09:18:56;;;;;;;6.38;3.10;;;9.50;99.90;;;;;;5002413;28;20037;-47
2022/11/17 09:21:21;;;;;;;6.07;3.17;;;9.50;99.90;;;;;;5002237;28;20038;-47
2022/11/17 09:23:47;;;;;;;6.93;3.22;;;9.40;99.90;;;;;;5005682;28;20030;-49
2022/11/17 09:26:14;;;;;;;7.75;3.17;;;9.50;99.90;;;;;;5002977;28;20042;-46
2022/11/17 09:28:41;;;;;;;6.05;3.17;;;9.50;99.90;;;;;;5002028;28;20537;-47
2022/11/17 09:31:10;;;;;;;9.43;3.35;;;9.50;99.90;;;;;;5008264;28;20046;-47
2022/11/17 09:33:35;;;;;;;7.57;3.05;;;9.50;99.90;;;;;;4998424;28;20057;-46
2022/11/17 09:36:01;;;;;;;6.43;3.20;;;9.50;99.90;;;;;;5002659;28;20520;-40
2022/11/17 09:38:27;;;;;;;5.00;2.83;;;9.50;99.90;;;;;;4996770;28;20033;-44
2022/11/17 09:40:54;;;;;;;4.20;1.50;;;9.50;99.90;;;;;;4994472;28;20045;-49
2022/11/17 09:43:34;;;;;;;5.80;2.90;;;9.60;99.90;;;;;;5003456;28;20539;-47
2022/11/17 09:46:16;;;;;;;5.20;3.10;;;9.70;99.90;;;;;;4997796;28;20566;-42
2022/11/17 09:49:05;;;;;;;7.32;3.33;;;9.70;99.90;;;;;;4999452;28;20087;-49
2022/11/17 09:51:33;;;;;;;5.57;3.08;;;9.70;99.90;;;;;;5001188;28;20530;-45
2022/11/17 09:54:12;;;;;;;5.70;3.00;;;9.60;99.90;;;;;;5000537;28;20061;-50
2022/11/17 09:56:39;;;;;;;7.20;3.60;;;9.60;99.90;;;;;;4993567;28;20045;-46
2022/11/17 09:59:10;;;;;;;4.75;2.83;;;9.60;99.90;;;;;;4994868;28;20121;-46
2022/11/17 10:01:37;;;;;;;8.18;3.00;;;9.60;99.90;;;;;;4997309;28;20040;-46
2022/11/17 10:04:10;;;;;;;6.20;3.15;;;9.70;99.90;;;;;;5000292;28;20037;-46
2022/11/17 10:06:36;;;;;;;4.10;2.70;;;9.70;99.90;;;;;;4999201;28;20050;-48
2022/11/17 10:09:27;;;;;;;5.78;2.50;;;9.70;99.90;;;;;;5005250;28;20046;-49
2022/11/17 10:12:06;;;;;;;5.15;2.47;;;9.80;99.90;;;;;;4993487;28;20050;-48
2022/11/17 10:14:35;;;;;;;5.53;2.90;;;9.80;99.90;;;;;;4994737;28;20045;-45
2022/11/17 10:17:01;;;;;;;5.03;2.58;;;9.80;99.90;;;;;;4998060;28;20077;-48
2022/11/17 10:19:30;;;;;;;4.00;2.53;;;9.90;99.90;;;;;;4994384;28;20128;-49
2022/11/17 10:22:02;;;;;;;6.07;2.40;;;9.90;99.90;;;;;;4999864;28;20141;-46
2022/11/17 10:24:38;;;;;;;6.38;2.88;;;9.90;99.90;;;;;;5000663;28;21064;-45
2022/11/17 10:27:14;;;;;;;4.13;2.28;;;9.90;99.90;;;;;;4997028;28;20050;-47
2022/11/17 10:29:39;;;;;;;3.90;1.77;;;10.00;99.90;;;;;;4995531;28;20046;-43
2022/11/17 10:32:13;;;;;;;4.53;1.83;;;10.00;99.90;;;;;;5004028;28;20056;-50
2022/11/17 10:34:39;;;;;;;2.60;1.33;;;10.10;99.90;;;;;;4996708;28;20573;-47
2022/11/17 10:37:26;;;;;;;2.92;0.70;;;10.10;99.90;;;;;;4995399;28;20082;-47
2022/11/17 10:40:11;;;;;;;2.67;1.00;;;10.20;99.90;;;;;;4986699;28;20041;-45
2022/11/17 10:42:52;;;;;;;3.22;0.88;;;10.20;99.90;;;;;;4989505;28;20074;-48
2022/11/17 10:45:18;;;;;;;1.52;0.43;;;10.30;99.90;;;;;;5006102;28;20038;-50
2022/11/17 10:47:44;;;;;;;1.02;0.40;;;10.30;99.90;;;;;;4998885;28;20085;-48
2022/11/17 10:50:18;;;;;;;3.17;1.00;;;10.30;99.90;;;;;;4999455;28;20046;-49
2022/11/17 10:52:45;;;;;;;1.90;0.70;;;10.30;99.90;;;;;;5001106;28;20498;-51
2022/11/17 10:55:28;;;;;;;1.50;0.47;;;10.40;99.90;;;;;;4996979;28;20042;-46
2022/11/17 10:57:58;;;;;;;3.28;0.60;;;10.40;99.90;;;;;;4990121;28;20053;-46
2022/11/17 11:00:31;;;;;;;1.55;0.38;;;10.40;99.90;;;;;;4995862;28;20088;-47
2022/11/17 11:03:18;;;;;;;2.60;0.50;;;10.50;99.90;;;;;;4993073;28;20061;-43
2022/11/17 11:06:18;;;;;;;1.50;0.40;;;10.40;99.90;;;;;;5004856;28;20069;-47
2022/11/17 11:09:02;;;;;;;1.65;0.35;;;10.40;99.90;;;;;;4995882;28;20395;-45
2022/11/17 11:11:53;;;;;;;2.35;0.32;;;10.40;99.90;;;;;;4999677;28;20479;-50
2022/11/17 11:14:38;;;;;;;3.13;0.43;;;10.40;99.90;;;;;;4995619;28;20050;-42
2022/11/17 11:17:15;;;;;;;3.05;0.30;;;10.40;99.90;;;;;;5001561;28;20076;-45
2022/11/17 11:19:44;;;;;;;4.50;1.10;;;10.40;99.90;;;;;;4996803;28;20054;-46
2022/11/17 11:22:41;;;;;;;2.85;0.50;;;10.40;99.90;;;;;;4997239;28;20044;-43
2022/11/17 11:25:40;;;;;;;5.07;0.50;;;10.40;99.90;;;;;;4990160;28;20052;-44
2022/11/17 11:28:30;;;;;;;4.80;0.47;;;10.40;99.90;;;;;;5000876;28;20320;-46
2022/11/17 11:31:23;;;;;;;2.83;0.30;;;10.40;99.90;;;;;;4989658;28;20451;-44
2022/11/17 11:34:09;;;;;;;2.83;0.40;;;10.40;99.90;;;;;;4994899;28;20033;-42
2022/11/17 11:36:49;;;;;;;1.17;0.30;;;10.40;99.90;;;;;;4994973;28;20152;-50
2022/11/17 11:39:34;;;;;;;2.60;0.30;;;10.50;99.90;;;;;;5001434;28;20407;-44
2022/11/17 11:42:24;;;;;;;1.70;0.30;;;10.50;99.90;;;;;;5005306;28;20042;-46
2022/11/17 11:45:15;;;;;;;1.20;0.40;;;10.50;99.90;;;;;;4996456;28;20038;-49
2022/11/17 11:47:44;;;;;;;1.77;0.45;;;10.50;99.90;;;;;;5003775;28;20475;-43
2022/11/17 11:50:21;;;;;;;3.63;0.60;;;10.50;99.90;;;;;;4994686;28;20101;-42
2022/11/17 11:52:54;;;;;;;1.20;0.38;;;10.50;99.90;;;;;;4997242;28;20084;-46
2022/11/17 11:55:30;;;;;;;1.50;0.30;;;10.60;99.90;;;;;;4997539;28;20567;-47
2022/11/17 11:58:06;;;;;;;0.75;0.15;;;10.50;99.90;;;;;;4996366;28;20581;-49
2022/11/17 12:00:32;;;;;;;2.75;0.95;;;10.50;99.90;;;;;;5008323;28;20049;-42
2022/11/17 12:03:31;;;;;;;2.58;0.30;;;10.50;99.90;;;;;;4997845;28;20516;-44
2022/11/17 12:09:31;;;;;;;3.13;0.77;;;10.40;99.90;;;;;;5002543;28;20050;-46
2022/11/17 12:12:01;;;;;;;3.47;1.08;;;10.40;99.90;;;;;;4997410;28;20060;-45
2022/11/17 12:14:32;;;;;;;2.97;0.73;;;10.40;99.90;;;;;;5000831;28;20045;-44
2022/11/17 12:17:04;;;;;;;1.42;0.32;;;10.40;99.90;;;;;;4995361;28;20119;-46
2022/11/17 12:19:55;;;;;;;2.67;0.50;;;10.40;99.90;;;;;;5005822;28;20049;-45
2022/11/17 12:22:33;;;;;;;1.08;0.28;;;10.40;99.90;;;;;;4999420;28;20038;-48
2022/11/17 12:25:18;;;;;;;3.28;0.60;;;10.40;99.90;;;;;;5004776;28;20030;-47
2022/11/17 12:27:51;;;;;;;2.90;0.95;;;10.40;99.90;;;;;;5002454;28;20046;-45
2022/11/17 12:30:46;;;;;;;3.10;0.43;;;10.40;99.90;;;;;;5000032;28;20126;-44
2022/11/17 12:33:12;;;;;;;0.88;0.40;;;10.40;99.90;;;;;;4996029;28;20048;-46
2022/11/17 12:35:38;;;;;;;2.08;0.50;;;10.30;99.90;;;;;;5002060;28;20027;-49
2022/11/17 12:38:16;;;;;;;1.02;0.30;;;10.40;99.90;;;;;;4999244;28;20038;-50
2022/11/17 12:40:47;;;;;;;1.90;0.50;;;10.30;99.90;;;;;;4998991;28;20038;-43
2022/11/17 12:43:15;;;;;;;2.63;0.40;;;10.40;99.90;;;;;;4995140;28;20163;-44
2022/11/17 12:46:03;;;;;;;1.58;0.50;;;10.30;99.90;;;;;;4999436;28;20046;-45
2022/11/17 12:48:32;;;;;;;3.70;0.57;;;10.30;99.90;;;;;;5012806;28;20086;-48
2022/11/17 12:51:33;;;;;;;1.25;0.40;;;10.30;99.90;;;;;;5001638;28;20030;-43
2022/11/17 12:54:19;;;;;;;2.92;0.60;;;10.30;99.90;;;;;;5005651;28;20395;-40
2022/11/17 12:56:48;;;;;;;2.33;0.50;;;10.30;99.90;;;;;;5001259;28;20042;-46
2022/11/17 12:59:29;;;;;;;2.33;0.60;;;10.30;99.90;;;;;;4999099;28;20446;-43
2022/11/17 13:02:28;;;;;;;4.38;0.60;;;10.30;99.90;;;;;;5006601;28;20045;-41
2022/11/17 13:05:00;;;;;;;2.25;0.95;;;10.20;99.90;;;;;;5003169;28;20046;-47
2022/11/17 13:07:26;;;;;;;3.85;0.65;;;10.30;99.90;;;;;;4995197;28;20489;-51
2022/11/17 13:09:55;;;;;;;4.75;0.80;;;10.30;99.90;;;;;;4999208;28;20042;-44
2022/11/17 13:12:32;;;;;;;3.53;0.50;;;10.30;99.90;;;;;;4997208;28;20129;-46
2022/11/17 13:15:01;;;;;;;1.80;0.47;;;10.30;99.90;;;;;;5000223;28;20038;-47
2022/11/17 13:17:47;;;;;;;1.63;0.40;;;10.30;99.90;;;;;;4998496;28;20056;-45
2022/11/17 13:20:26;;;;;;;5.82;0.52;;;10.30;99.90;;;;;;4997983;28;20054;-45
2022/11/17 13:23:03;;;;;;;3.00;0.60;;;10.30;99.90;;;;;;4998831;28;20041;-46
2022/11/17 13:25:29;;;;;;;1.70;0.50;;;10.30;99.90;;;;;;5001567;28;20511;-44
2022/11/17 13:27:55;;;;;;;0.90;0.38;;;10.30;99.90;;;;;;5001531;28;20038;-46
2022/11/17 13:30:22;;;;;;;1.33;0.40;;;10.40;99.90;;;;;;4998028;28;20073;-43
2022/11/17 13:32:48;;;;;;;4.03;1.02;;;10.40;99.90;;;;;;4995937;28;20070;-49
2022/11/17 13:35:29;;;;;;;4.10;0.93;;;10.40;99.90;;;;;;4999073;28;20496;-47
2022/11/17 13:38:11;;;;;;;2.80;0.70;;;10.40;99.90;;;;;;5000434;28;20061;-49
2022/11/17 13:40:38;;;;;;;1.15;0.45;;;10.40;99.90;;;;;;5006833;28;20037;-44
2022/11/17 13:43:09;;;;;;;2.53;0.50;;;10.40;99.90;;;;;;5003811;28;20030;-48
2022/11/17 13:45:34;;;;;;;1.77;0.40;;;10.40;99.90;;;;;;5007424;28;20488;-46